createdAt,value
2022-10-11T00:00:11.972Z,6.18
2022-10-11T00:02:39.005Z,5.45
2022-10-11T00:05:06.571Z,5.63
2022-10-11T00:07:33.629Z,5.70
2022-10-11T00:10:00.768Z,5.93
2022-10-11T00:12:27.709Z,5.55
2022-10-11T00:14:54.605Z,5.82
2022-10-11T00:17:21.615Z,6.03
2022-10-11T00:19:48.657Z,5.47
2022-10-11T00:22:15.625Z,5.35
2022-10-11T00:24:42.628Z,5.57
2022-10-11T00:27:09.650Z,5.60
2022-10-11T00:29:38.297Z,4.93
2022-10-11T00:32:05.804Z,5.45
2022-10-11T00:34:32.833Z,4.85
2022-10-11T00:36:59.756Z,5.07
2022-10-11T00:39:26.958Z,5.72
2022-10-11T00:41:54.161Z,4.82
2022-10-11T00:44:24.558Z,5.30
2022-10-11T00:47:12.571Z,5.65
2022-10-11T00:49:50.334Z,5.32
2022-10-11T00:52:29.153Z,5.05
2022-10-11T00:54:58.330Z,5.05
2022-10-11T00:57:29.655Z,5.70
2022-10-11T00:59:56.753Z,6.03
2022-10-11T01:02:24.883Z,5.07
2022-10-11T01:05:11.293Z,4.93
2022-10-11T01:07:40.578Z,5.72
2022-10-11T01:10:07.734Z,5.72
2022-10-11T01:12:35.373Z,4.80
2022-10-11T01:15:15.912Z,5.90
2022-10-11T01:18:13.385Z,4.47
2022-10-11T01:21:00.861Z,4.38
2022-10-11T01:23:33.882Z,4.55
2022-10-11T01:26:38.565Z,5.75
2022-10-11T01:29:24.106Z,5.15
2022-10-11T01:32:22.169Z,5.40
2022-10-11T01:34:56.772Z,5.10
2022-10-11T01:37:45.329Z,6.97
2022-10-11T01:40:38.437Z,8.38
2022-10-11T01:43:06.113Z,5.70
2022-10-11T01:45:34.848Z,5.60
2022-10-11T01:48:04.560Z,7.63
2022-10-11T01:50:50.389Z,6.20
2022-10-11T01:53:36.132Z,6.15
2022-10-11T01:56:16.606Z,6.13
2022-10-11T01:59:09.380Z,6.35
2022-10-11T02:02:13.955Z,6.45
2022-10-11T02:05:16.081Z,5.13
2022-10-11T02:07:50.426Z,5.05
2022-10-11T02:10:36.105Z,5.82
2022-10-11T02:13:13.198Z,6.15
2022-10-11T02:15:42.341Z,5.93
2022-10-11T02:18:15.033Z,5.32
2022-10-11T02:20:44.137Z,5.65
2022-10-11T02:23:18.772Z,5.05
2022-10-11T02:25:47.388Z,5.05
2022-10-11T02:28:20.749Z,5.00
2022-10-11T02:30:49.760Z,6.35
2022-10-11T02:33:22.891Z,6.07
2022-10-11T02:35:58.708Z,7.70
2022-10-11T02:38:34.041Z,7.45
2022-10-11T02:41:17.653Z,12.65
2022-10-11T02:44:00.591Z,12.18
2022-10-11T02:46:30.604Z,9.13
2022-10-11T02:48:59.883Z,8.52
2022-10-11T02:51:30.221Z,10.00
2022-10-11T02:53:57.527Z,10.60
2022-10-11T02:56:24.726Z,8.27
2022-10-11T02:58:51.805Z,8.18
2022-10-11T03:01:18.844Z,7.32
2022-10-11T03:03:45.877Z,7.30
2022-10-11T03:06:12.917Z,9.10
2022-10-11T03:08:40.008Z,6.72
2022-10-11T03:11:07.117Z,7.22
2022-10-11T03:13:34.165Z,6.78
2022-10-11T03:16:03.687Z,6.28
2022-10-11T03:18:31.444Z,7.57
2022-10-11T03:20:58.608Z,8.65
2022-10-11T03:23:25.702Z,9.05
2022-10-11T03:25:52.766Z,8.90
2022-10-11T03:28:20.231Z,8.65
2022-10-11T03:30:51.558Z,8.02
2022-10-11T03:33:19.080Z,8.55
2022-10-11T03:35:47.767Z,8.35
2022-10-11T03:38:18.073Z,8.80
2022-10-11T03:40:45.166Z,8.93
2022-10-11T03:43:12.732Z,8.98
2022-10-11T03:45:42.372Z,8.07
2022-10-11T03:48:09.814Z,8.25
2022-10-11T03:50:37.374Z,9.35
2022-10-11T03:53:05.258Z,9.73
2022-10-11T03:55:32.536Z,8.65
2022-10-11T03:57:59.636Z,9.32
2022-10-11T04:00:26.695Z,8.68
2022-10-11T04:02:53.592Z,8.80
2022-10-11T04:05:20.838Z,8.90
2022-10-11T04:07:47.801Z,8.15
2022-10-11T04:10:14.765Z,8.82
2022-10-11T04:12:41.763Z,9.45
2022-10-11T04:15:09.173Z,8.32
2022-10-11T04:17:36.088Z,10.05
2022-10-11T04:20:03.129Z,8.70
2022-10-11T04:22:30.106Z,8.10
2022-10-11T04:24:57.147Z,8.27
2022-10-11T04:27:24.122Z,8.98
2022-10-11T04:29:51.068Z,8.30
2022-10-11T04:32:18.015Z,8.55
2022-10-11T04:34:45.146Z,10.05
2022-10-11T04:37:12.266Z,9.30
2022-10-11T04:39:39.378Z,9.15
2022-10-11T04:42:06.283Z,8.55
2022-10-11T04:44:33.347Z,7.80
2022-10-11T04:47:00.348Z,8.30
2022-10-11T04:49:27.620Z,9.18
2022-10-11T04:51:54.614Z,8.60
2022-10-11T04:54:21.599Z,9.25
2022-10-11T04:56:48.627Z,17.48
2022-10-11T04:59:15.611Z,18.05
2022-10-11T05:01:42.598Z,18.70
2022-10-11T05:04:09.601Z,15.90
2022-10-11T05:06:36.534Z,11.32
2022-10-11T05:09:03.761Z,10.50
2022-10-11T05:11:31.096Z,10.43
2022-10-11T05:13:58.103Z,10.80
2022-10-11T05:16:25.331Z,10.55
2022-10-11T05:18:52.494Z,22.05
2022-10-11T05:21:28.277Z,22.63
2022-10-11T05:23:56.441Z,21.45
2022-10-11T05:26:27.960Z,20.15
2022-10-11T05:28:55.641Z,18.30
2022-10-11T05:31:22.774Z,16.02
2022-10-11T05:33:49.904Z,16.65
2022-10-11T05:36:17.038Z,16.17
2022-10-11T05:38:44.314Z,15.57
2022-10-11T05:41:14.648Z,15.55
2022-10-11T05:43:41.899Z,13.05
2022-10-11T05:46:09.116Z,11.57
2022-10-11T05:48:36.375Z,11.75
2022-10-11T05:51:06.156Z,11.15
2022-10-11T05:53:33.640Z,11.15
2022-10-11T05:56:00.943Z,12.43
2022-10-11T05:58:28.326Z,11.98
2022-10-11T06:00:56.984Z,11.20
2022-10-11T06:03:24.542Z,11.45
2022-10-11T06:05:56.479Z,11.05
2022-10-11T06:08:24.002Z,10.60
2022-10-11T06:10:51.058Z,10.05
2022-10-11T06:13:18.556Z,11.55
2022-10-11T06:15:45.535Z,10.18
2022-10-11T06:18:12.520Z,11.68
2022-10-11T06:20:39.609Z,12.02
2022-10-11T06:23:06.513Z,12.50
2022-10-11T06:25:33.558Z,12.07
2022-10-11T06:28:00.574Z,13.10
2022-10-11T06:30:27.544Z,13.05
2022-10-11T06:32:54.568Z,12.70
2022-10-11T06:35:21.503Z,14.55
2022-10-11T06:37:48.473Z,16.00
2022-10-11T06:40:15.508Z,15.18
2022-10-11T06:42:42.401Z,18.65
2022-10-11T06:45:09.867Z,16.95
2022-10-11T06:47:36.740Z,18.10
2022-10-11T06:50:05.587Z,17.77
2022-10-11T06:52:32.638Z,17.55
2022-10-11T06:54:59.709Z,17.73
2022-10-11T06:57:28.243Z,17.55
2022-10-11T06:59:55.175Z,18.13
2022-10-11T07:02:22.189Z,17.63
2022-10-11T07:04:49.177Z,18.98
2022-10-11T07:07:16.107Z,20.00
2022-10-11T07:09:43.141Z,19.45
2022-10-11T07:12:10.215Z,18.75
2022-10-11T07:14:37.330Z,16.85
2022-10-11T07:17:04.512Z,18.63
2022-10-11T07:19:31.700Z,18.33
2022-10-11T07:21:58.761Z,18.42
2022-10-11T07:24:25.917Z,18.00
2022-10-11T07:26:53.026Z,17.13
2022-10-11T07:29:19.957Z,18.48
2022-10-11T07:31:46.941Z,18.10
2022-10-11T07:34:13.937Z,20.00
2022-10-11T07:36:41.158Z,17.70
2022-10-11T07:39:08.921Z,17.70
2022-10-11T07:41:38.166Z,18.67
2022-10-11T07:44:07.723Z,16.85
2022-10-11T07:46:34.746Z,16.65
2022-10-11T07:49:01.734Z,16.67
2022-10-11T07:51:28.787Z,16.73
2022-10-11T07:53:57.363Z,15.75
2022-10-11T07:56:29.213Z,15.52
2022-10-11T07:58:59.610Z,14.30
2022-10-11T08:01:27.953Z,14.38
2022-10-11T08:03:56.916Z,13.90
2022-10-11T08:06:29.973Z,15.90
2022-10-11T08:09:00.147Z,15.45
2022-10-11T08:11:30.292Z,16.27
2022-10-11T08:13:59.448Z,16.08
2022-10-11T08:16:26.738Z,16.10
2022-10-11T08:18:56.649Z,17.58
2022-10-11T08:21:23.854Z,18.90
2022-10-11T08:23:50.946Z,16.83
2022-10-11T08:26:18.038Z,17.50
2022-10-11T08:28:45.014Z,18.45
2022-10-11T08:31:16.766Z,19.30
2022-10-11T08:33:43.991Z,18.60
2022-10-11T08:36:12.112Z,19.20
2022-10-11T08:38:40.141Z,19.38
2022-10-11T08:41:28.343Z,18.70
2022-10-11T08:44:18.222Z,17.33
2022-10-11T08:46:50.395Z,17.23
2022-10-11T08:49:23.317Z,17.85
2022-10-11T08:52:00.419Z,17.38
2022-10-11T08:54:43.353Z,18.35
2022-10-11T08:57:17.981Z,17.13
2022-10-11T08:59:57.897Z,17.90
2022-10-11T09:03:08.165Z,17.85
2022-10-11T09:05:44.553Z,17.85
2022-10-11T09:08:21.497Z,17.73
2022-10-11T09:10:59.821Z,19.42
2022-10-11T09:13:52.525Z,18.45
2022-10-11T09:16:26.387Z,16.67
2022-10-11T09:19:11.618Z,18.58
2022-10-11T09:22:00.196Z,16.50
2022-10-11T09:24:39.520Z,17.33
2022-10-11T09:28:01.223Z,17.02
2022-10-11T09:30:24.029Z,17.00
2022-10-11T09:33:11.476Z,18.48
2022-10-11T09:35:46.466Z,18.45
2022-10-11T09:38:27.370Z,18.33
2022-10-11T09:41:23.469Z,18.08
2022-10-11T09:43:52.345Z,19.40
2022-10-11T09:46:40.342Z,18.50
2022-10-11T09:49:14.834Z,17.13
2022-10-11T09:51:47.327Z,17.75
2022-10-11T09:54:14.404Z,17.67
2022-10-11T09:56:44.466Z,18.20
2022-10-11T09:59:36.055Z,18.33
2022-10-11T10:02:22.400Z,16.38
2022-10-11T10:05:10.530Z,16.45
2022-10-11T10:07:41.077Z,17.73
2022-10-11T10:10:28.696Z,16.42
2022-10-11T10:12:59.498Z,16.65
2022-10-11T10:15:35.410Z,17.65
2022-10-11T10:18:03.921Z,17.17
2022-10-11T10:20:34.354Z,18.83
2022-10-11T10:23:21.965Z,16.63
2022-10-11T10:25:51.799Z,18.95
2022-10-11T10:28:23.204Z,19.13
2022-10-11T10:30:54.438Z,18.00
2022-10-11T10:33:27.101Z,17.42
2022-10-11T10:35:56.661Z,19.15
2022-10-11T10:38:28.772Z,15.63
2022-10-11T10:41:09.397Z,17.52
2022-10-11T10:43:39.747Z,17.02
2022-10-11T10:46:14.035Z,17.95
2022-10-11T10:52:06.073Z,16.85
2022-10-11T10:54:48.000Z,18.42
2022-10-11T10:57:25.266Z,20.65
2022-10-11T11:00:14.854Z,17.38
2022-10-11T11:02:47.256Z,17.52
2022-10-11T11:05:27.156Z,16.55
2022-10-11T11:08:27.922Z,19.77
2022-10-11T11:11:04.500Z,15.70
2022-10-11T11:13:55.627Z,15.10
2022-10-11T11:16:32.935Z,16.05
2022-10-11T11:19:37.514Z,15.80
2022-10-11T11:22:22.181Z,14.05
2022-10-11T11:25:14.807Z,13.48
2022-10-11T11:27:54.262Z,13.20
2022-10-11T11:30:27.223Z,14.82
2022-10-11T11:32:57.149Z,14.02
2022-10-11T11:35:47.557Z,13.40
2022-10-11T11:38:51.083Z,13.82
2022-10-11T11:41:24.121Z,12.93
2022-10-11T11:44:12.153Z,13.38
2022-10-11T11:46:48.144Z,14.18
2022-10-11T11:49:31.775Z,13.70
2022-10-11T11:51:59.951Z,12.20
2022-10-11T11:55:00.161Z,12.05
2022-10-11T11:57:52.004Z,10.70
2022-10-11T12:00:25.753Z,9.80
2022-10-11T12:03:13.380Z,10.50
2022-10-11T12:06:12.348Z,9.32
2022-10-11T12:08:44.672Z,8.48
2022-10-11T12:11:21.987Z,10.98
2022-10-11T12:13:52.145Z,9.27
2022-10-11T12:16:20.286Z,9.55
2022-10-11T12:18:59.036Z,8.45
2022-10-11T12:21:36.628Z,9.38
2022-10-11T12:24:12.248Z,8.52
2022-10-11T12:26:42.977Z,9.77
2022-10-11T12:29:18.914Z,10.68
2022-10-11T12:31:49.303Z,9.73
2022-10-11T12:34:26.889Z,10.13
2022-10-11T12:36:53.963Z,11.27
2022-10-11T12:39:20.932Z,11.35
2022-10-11T12:41:47.878Z,11.55
2022-10-11T12:44:29.317Z,22.67
2022-10-11T12:46:59.115Z,13.23
2022-10-11T12:49:43.449Z,10.60
2022-10-11T12:52:16.784Z,10.18
2022-10-11T12:55:48.465Z,9.88
2022-10-11T12:58:30.853Z,9.75
2022-10-11T13:00:58.095Z,9.90
2022-10-11T13:03:33.675Z,9.82
2022-10-11T13:06:10.230Z,8.13
2022-10-11T13:08:43.177Z,8.35
2022-10-11T13:11:16.691Z,8.40
2022-10-11T13:13:49.870Z,8.27
2022-10-11T13:16:20.228Z,7.93
2022-10-11T13:18:50.613Z,8.05
2022-10-11T13:21:27.005Z,8.40
2022-10-11T13:24:11.769Z,8.27
2022-10-11T13:26:39.223Z,8.43
2022-10-11T13:29:19.634Z,8.10
2022-10-11T13:31:48.346Z,9.35
2022-10-11T13:34:18.618Z,9.15
2022-10-11T13:36:48.072Z,8.32
2022-10-11T13:39:41.643Z,9.32
2022-10-11T13:42:14.118Z,9.15
2022-10-11T13:44:43.220Z,9.73
2022-10-11T13:47:15.340Z,8.60
2022-10-11T13:50:08.446Z,9.75
2022-10-11T13:52:35.445Z,9.13
2022-10-11T13:55:05.989Z,8.63
2022-10-11T13:57:39.109Z,9.45
2022-10-11T14:00:27.104Z,9.93
2022-10-11T14:03:18.116Z,9.27
2022-10-11T14:05:56.698Z,8.90
2022-10-11T14:08:38.803Z,9.05
2022-10-11T14:11:07.794Z,8.90
2022-10-11T14:13:42.283Z,8.00
2022-10-11T14:16:12.460Z,7.05
2022-10-11T14:18:47.190Z,8.50
2022-10-11T14:21:20.476Z,8.13
2022-10-11T14:23:50.640Z,8.10
2022-10-11T14:26:19.297Z,8.15
2022-10-11T14:28:49.548Z,8.88
2022-10-11T14:31:16.582Z,8.60
2022-10-11T14:33:43.867Z,9.48
2022-10-11T14:36:10.831Z,8.23
2022-10-11T14:38:37.784Z,8.73
2022-10-11T14:41:04.829Z,8.75
2022-10-11T14:43:31.756Z,9.45
2022-10-11T14:45:58.708Z,8.02
2022-10-11T14:48:53.645Z,8.82
2022-10-11T14:51:14.201Z,9.48
2022-10-11T14:53:46.272Z,8.23
2022-10-11T14:56:18.925Z,7.97
2022-10-11T14:58:48.368Z,8.18
2022-10-11T15:01:16.740Z,10.38
2022-10-11T15:03:43.774Z,9.65
2022-10-11T15:06:40.818Z,11.18
2022-10-11T15:09:08.279Z,10.60
2022-10-11T15:11:38.141Z,10.95
2022-10-11T15:14:06.103Z,10.18
2022-10-11T15:16:33.827Z,9.48
2022-10-11T15:19:01.262Z,9.18
2022-10-11T15:21:29.769Z,10.15
2022-10-11T15:23:57.210Z,10.40
2022-10-11T15:26:26.427Z,10.80
2022-10-11T15:28:55.145Z,9.15
2022-10-11T15:31:22.888Z,9.75
2022-10-11T15:33:50.234Z,9.43
2022-10-11T15:36:20.348Z,9.38
2022-10-11T15:38:48.464Z,12.15
2022-10-11T15:41:19.297Z,10.38
2022-10-11T15:43:48.456Z,11.68
2022-10-11T15:46:18.728Z,10.90
2022-10-11T15:48:46.213Z,10.27
2022-10-11T15:51:13.307Z,11.25
2022-10-11T15:53:40.746Z,10.35
2022-10-11T15:56:12.124Z,10.50
2022-10-11T15:58:40.964Z,11.93
2022-10-11T16:01:12.554Z,10.30
2022-10-11T16:03:39.745Z,9.75
2022-10-11T16:06:07.284Z,10.07
2022-10-11T16:08:35.222Z,9.45
2022-10-11T16:11:02.942Z,9.82
2022-10-11T16:13:31.197Z,10.20
2022-10-11T16:16:00.214Z,11.80
2022-10-11T16:18:30.133Z,8.25
2022-10-11T16:21:01.258Z,9.70
2022-10-11T16:23:28.149Z,8.77
2022-10-11T16:26:00.589Z,9.75
2022-10-11T16:28:28.745Z,9.10
2022-10-11T16:30:56.084Z,10.35
2022-10-11T16:33:24.429Z,9.73
2022-10-11T16:35:52.190Z,8.88
2022-10-11T16:38:19.209Z,8.90
2022-10-11T16:40:46.130Z,9.48
2022-10-11T16:43:13.107Z,9.82
2022-10-11T16:45:40.065Z,8.90
2022-10-11T16:48:07.009Z,9.73
2022-10-11T16:50:39.096Z,8.98
2022-10-11T16:53:06.606Z,9.48
2022-10-11T16:55:33.582Z,9.13
2022-10-11T16:58:00.522Z,9.40
2022-10-11T17:00:27.547Z,10.60
2022-10-11T17:02:54.507Z,9.75
2022-10-11T17:05:21.430Z,9.23
2022-10-11T17:07:48.598Z,9.38
2022-10-11T17:10:15.837Z,9.15
2022-10-11T17:12:46.528Z,9.35
2022-10-11T17:15:17.090Z,11.13
2022-10-11T17:17:44.454Z,10.73
2022-10-11T17:20:11.501Z,10.20
2022-10-11T17:22:38.505Z,10.15
2022-10-11T17:25:05.965Z,9.98
2022-10-11T17:27:33.150Z,9.85
2022-10-11T17:30:00.057Z,10.10
2022-10-11T17:32:27.207Z,10.82
2022-10-11T17:34:54.220Z,9.38
2022-10-11T17:37:21.296Z,9.95
2022-10-11T17:39:48.408Z,9.35
2022-10-11T17:42:15.462Z,9.02
2022-10-11T17:44:42.388Z,10.55
2022-10-11T17:47:09.522Z,9.57
2022-10-11T17:49:36.692Z,10.50
2022-10-11T17:52:03.977Z,10.68
2022-10-11T17:54:31.115Z,11.10
2022-10-11T17:56:58.437Z,13.00
2022-10-11T17:59:27.693Z,11.70
2022-10-11T18:01:54.924Z,12.15
2022-10-11T18:04:22.551Z,13.20
2022-10-11T18:06:49.730Z,13.02
2022-10-11T18:09:18.578Z,14.07
2022-10-11T18:11:46.335Z,13.85
2022-10-11T18:14:13.374Z,13.57
2022-10-11T18:16:40.933Z,11.90
2022-10-11T18:19:11.550Z,12.57
2022-10-11T18:21:39.148Z,11.70
2022-10-11T18:24:10.950Z,13.05
2022-10-11T18:26:38.390Z,12.52
2022-10-11T18:29:05.482Z,13.40
2022-10-11T18:31:35.230Z,12.60
2022-10-11T18:34:03.755Z,12.82
2022-10-11T18:36:31.427Z,12.45
2022-10-11T18:39:01.837Z,11.75
2022-10-11T18:41:32.059Z,12.60
2022-10-11T18:44:02.144Z,11.90
2022-10-11T18:46:29.779Z,13.10
2022-10-11T18:48:58.797Z,12.48
2022-10-11T18:51:28.354Z,14.15
2022-10-11T18:53:55.546Z,13.38
2022-10-11T18:56:27.035Z,12.80
2022-10-11T18:58:56.074Z,12.60
2022-10-11T19:01:32.376Z,13.57
2022-10-11T19:04:01.550Z,12.75
2022-10-11T19:06:38.132Z,13.13
2022-10-11T19:09:10.632Z,13.27
2022-10-11T19:11:37.970Z,14.40
2022-10-11T19:14:08.034Z,12.77
2022-10-11T19:16:40.600Z,13.38
2022-10-11T19:19:08.182Z,12.63
2022-10-11T19:21:35.873Z,11.38
2022-10-11T19:24:02.832Z,11.10
2022-10-11T19:26:33.834Z,11.65
2022-10-11T19:29:06.526Z,11.35
2022-10-11T19:31:35.195Z,11.25
2022-10-11T19:34:02.294Z,11.82
2022-10-11T19:36:33.979Z,11.98
2022-10-11T19:39:04.133Z,12.57
2022-10-11T19:41:31.070Z,12.43
2022-10-11T19:44:00.873Z,11.88
2022-10-11T19:49:17.814Z,11.93
2022-10-11T19:51:45.163Z,12.43
2022-10-11T19:54:14.038Z,11.55
2022-10-11T19:56:41.515Z,10.98
2022-10-11T19:59:08.665Z,11.88
2022-10-11T20:01:36.942Z,11.25
2022-10-11T20:04:22.688Z,11.15
2022-10-11T20:06:57.162Z,9.98
2022-10-11T20:09:29.460Z,10.13
2022-10-11T20:11:56.805Z,11.60
2022-10-11T20:14:23.822Z,10.50
2022-10-11T20:16:51.308Z,9.82
2022-10-11T20:19:18.808Z,10.10
2022-10-11T20:21:45.919Z,10.38
2022-10-11T20:24:13.152Z,10.77
2022-10-11T20:26:40.294Z,10.65
2022-10-11T20:29:07.573Z,10.70
2022-10-11T20:31:38.299Z,11.57
2022-10-11T20:34:07.462Z,11.50
2022-10-11T20:36:36.287Z,11.00
2022-10-11T20:39:04.795Z,11.38
2022-10-11T20:41:34.695Z,10.57
2022-10-11T20:44:02.476Z,11.45
2022-10-11T20:46:32.688Z,11.60
2022-10-11T20:49:02.521Z,12.30
2022-10-11T20:51:31.797Z,11.13
2022-10-11T20:53:59.264Z,12.25
2022-10-11T20:56:26.941Z,11.85
2022-10-11T20:58:55.466Z,12.10
2022-10-11T21:01:31.346Z,11.95
2022-10-11T21:04:00.043Z,11.45
2022-10-11T21:06:28.186Z,10.77
2022-10-11T21:08:56.342Z,11.82
2022-10-11T21:11:31.937Z,10.88
2022-10-11T21:14:00.682Z,11.27
2022-10-11T21:16:27.930Z,11.18
2022-10-11T21:18:56.994Z,11.07
2022-10-11T21:21:25.167Z,11.52
2022-10-11T21:23:57.266Z,11.55
2022-10-11T21:26:25.073Z,11.57
2022-10-11T21:28:52.351Z,11.48
2022-10-11T21:31:21.434Z,11.30
2022-10-11T21:33:48.790Z,10.88
2022-10-11T21:36:24.763Z,11.00
2022-10-11T21:38:52.613Z,12.38
2022-10-11T21:41:21.894Z,12.05
2022-10-11T21:43:49.470Z,11.05
2022-10-11T21:46:19.932Z,11.98
2022-10-11T21:48:47.704Z,10.57
2022-10-11T21:51:17.303Z,10.38
2022-10-11T21:53:44.223Z,10.73
2022-10-11T21:56:11.261Z,10.55
2022-10-11T21:58:38.296Z,10.57
2022-10-11T22:01:06.137Z,10.90
2022-10-11T22:03:33.150Z,11.15
2022-10-11T22:06:03.523Z,11.90
2022-10-11T22:08:30.771Z,10.90
2022-10-11T22:11:00.214Z,11.32
2022-10-11T22:13:29.121Z,11.38
2022-10-11T22:15:56.745Z,10.80
2022-10-11T22:18:29.860Z,11.77
2022-10-11T22:21:09.787Z,11.50
2022-10-11T22:23:36.753Z,10.43
2022-10-11T22:26:07.853Z,10.35
2022-10-11T22:28:35.675Z,11.43
2022-10-11T22:31:04.501Z,10.73
2022-10-11T22:33:31.642Z,11.68
2022-10-11T22:36:00.741Z,11.30
2022-10-11T22:38:28.135Z,10.35
2022-10-11T22:40:57.979Z,10.23
2022-10-11T22:43:25.208Z,10.90
2022-10-11T22:45:52.168Z,11.32
2022-10-11T22:48:19.114Z,11.18
2022-10-11T22:50:46.053Z,10.80
2022-10-11T22:53:14.242Z,11.15
2022-10-11T22:55:41.974Z,10.25
2022-10-11T22:58:09.262Z,10.75
2022-10-11T23:00:36.751Z,10.18
2022-10-11T23:03:04.348Z,10.18
2022-10-11T23:05:31.301Z,10.23
2022-10-11T23:07:58.199Z,11.10
2022-10-11T23:10:25.207Z,10.07
2022-10-11T23:12:52.112Z,10.25
2022-10-11T23:15:19.281Z,10.90
2022-10-11T23:17:46.215Z,9.85
2022-10-11T23:20:13.400Z,9.68
2022-10-11T23:22:40.304Z,9.77
2022-10-11T23:25:08.047Z,9.57
2022-10-11T23:27:35.124Z,9.48
2022-10-11T23:30:02.441Z,9.15
2022-10-11T23:32:29.372Z,9.65
2022-10-11T23:34:56.410Z,9.38
2022-10-11T23:37:23.312Z,9.63
2022-10-11T23:39:50.331Z,10.73
2022-10-11T23:42:17.230Z,9.02
2022-10-11T23:44:47.362Z,9.50
2022-10-11T23:47:14.265Z,9.63
2022-10-11T23:49:41.317Z,9.63
2022-10-11T23:52:08.233Z,10.68
2022-10-11T23:54:35.128Z,9.10
2022-10-11T23:57:02.122Z,10.52
2022-10-11T23:59:29.102Z,11.52
